createdAt,value
2022-12-19T00:00:23.105Z,-5.90
2022-12-19T00:02:50.499Z,-6.12
2022-12-19T00:05:18.054Z,-6.27
2022-12-19T00:07:48.803Z,-6.54
2022-12-19T00:10:16.230Z,-6.85
2022-12-19T00:12:43.486Z,-6.79
2022-12-19T00:15:10.961Z,-7.05
2022-12-19T00:17:38.444Z,-7.15
2022-12-19T00:20:06.327Z,-7.27
2022-12-19T00:22:33.629Z,-7.28
2022-12-19T00:25:00.919Z,-7.39
2022-12-19T00:27:28.897Z,-7.45
2022-12-19T00:29:56.398Z,-7.59
2022-12-19T00:32:23.754Z,-7.84
2022-12-19T00:34:51.106Z,-7.57
2022-12-19T00:37:18.431Z,-7.84
2022-12-19T00:39:45.706Z,-7.42
2022-12-19T00:42:14.477Z,-7.75
2022-12-19T00:44:42.280Z,-7.90
2022-12-19T00:47:10.041Z,-7.82
2022-12-19T00:49:38.215Z,-7.84
2022-12-19T00:52:06.214Z,-8.09
2022-12-19T00:54:33.637Z,-7.94
2022-12-19T00:57:01.160Z,-8.09
2022-12-19T00:59:28.607Z,-8.31
2022-12-19T01:01:57.671Z,-8.47
2022-12-19T01:04:29.454Z,-8.28
2022-12-19T01:07:02.739Z,-8.23
2022-12-19T01:09:35.733Z,-8.48
2022-12-19T01:12:23.959Z,-8.16
2022-12-19T01:14:58.509Z,-8.14
2022-12-19T01:17:44.705Z,-7.94
2022-12-19T01:20:15.281Z,-7.83
2022-12-19T01:22:43.083Z,-8.03
2022-12-19T01:25:10.714Z,-8.04
2022-12-19T01:27:40.342Z,-8.10
2022-12-19T01:30:10.335Z,-8.09
2022-12-19T01:32:38.874Z,-8.23
2022-12-19T01:35:09.207Z,-8.38
2022-12-19T01:37:52.321Z,-8.17
2022-12-19T01:40:25.402Z,-8.09
2022-12-19T01:42:52.717Z,-8.03
2022-12-19T01:45:33.128Z,-8.16
2022-12-19T01:48:13.533Z,-8.15
2022-12-19T01:51:00.705Z,-8.09
2022-12-19T01:53:49.224Z,-8.22
2022-12-19T01:56:24.608Z,-8.34
2022-12-19T01:59:05.665Z,-8.62
2022-12-19T02:01:47.690Z,-8.48
2022-12-19T02:04:25.188Z,-8.74
2022-12-19T02:06:55.208Z,-8.62
2022-12-19T02:09:25.131Z,-8.45
2022-12-19T02:11:53.709Z,-8.58
2022-12-19T02:14:22.131Z,-8.45
2022-12-19T02:17:16.426Z,-8.38
2022-12-19T02:20:19.355Z,-8.22
2022-12-19T02:22:49.677Z,-8.17
2022-12-19T02:25:26.718Z,-8.28
2022-12-19T02:28:30.211Z,-8.35
2022-12-19T02:31:08.940Z,-8.56
2022-12-19T02:33:47.671Z,-8.44
2022-12-19T02:36:21.369Z,-8.52
2022-12-19T02:39:06.364Z,-8.55
2022-12-19T02:41:55.051Z,-8.60
2022-12-19T02:44:49.178Z,-8.55
2022-12-19T02:47:19.047Z,-8.44
2022-12-19T02:49:47.705Z,-8.81
2022-12-19T02:52:21.187Z,-8.48
2022-12-19T02:54:55.035Z,-8.48
2022-12-19T02:57:35.856Z,-8.26
2022-12-19T03:00:11.115Z,-8.24
2022-12-19T03:02:43.454Z,-8.43
2022-12-19T03:05:27.129Z,-8.31
2022-12-19T03:07:58.493Z,-8.35
2022-12-19T03:10:46.005Z,-8.38
2022-12-19T03:13:22.982Z,-8.34
2022-12-19T03:15:52.310Z,-8.27
2022-12-19T03:18:21.862Z,-8.47
2022-12-19T03:21:00.381Z,-8.37
2022-12-19T03:23:28.896Z,-7.66
2022-12-19T03:26:01.426Z,-7.21
2022-12-19T03:28:45.568Z,-7.47
2022-12-19T03:31:16.108Z,-7.64
2022-12-19T03:33:46.432Z,-7.53
2022-12-19T03:36:20.977Z,-7.23
2022-12-19T03:38:49.107Z,-7.01
2022-12-19T03:41:39.483Z,-6.91
2022-12-19T03:44:09.222Z,-7.35
2022-12-19T03:46:44.223Z,-7.64
2022-12-19T03:49:12.875Z,-7.96
2022-12-19T03:51:59.502Z,-8.00
2022-12-19T03:54:35.116Z,-7.97
2022-12-19T03:57:13.553Z,-7.97
2022-12-19T03:59:49.646Z,-8.12
2022-12-19T04:02:20.027Z,-7.79
2022-12-19T04:05:09.128Z,-8.15
2022-12-19T04:07:41.489Z,-8.18
2022-12-19T04:10:12.976Z,-7.84
2022-12-19T04:12:50.720Z,-7.78
2022-12-19T04:15:20.616Z,-7.94
2022-12-19T04:17:51.722Z,-7.94
2022-12-19T04:20:24.600Z,-8.15
2022-12-19T04:23:06.880Z,-8.46
2022-12-19T04:25:38.361Z,-8.37
2022-12-19T04:28:15.231Z,-8.42
2022-12-19T04:30:45.050Z,-8.49
2022-12-19T04:33:12.271Z,-8.25
2022-12-19T04:35:39.661Z,-8.44
2022-12-19T04:38:07.501Z,-8.38
2022-12-19T04:40:40.902Z,-8.49
2022-12-19T04:43:09.546Z,-8.57
2022-12-19T04:45:36.995Z,-8.49
2022-12-19T04:48:04.786Z,-8.42
2022-12-19T04:50:34.801Z,-8.18
2022-12-19T04:53:02.119Z,-8.15
2022-12-19T04:55:29.411Z,-7.75
2022-12-19T04:57:56.752Z,-7.47
2022-12-19T05:00:24.068Z,-7.29
2022-12-19T05:02:51.560Z,-7.18
2022-12-19T05:05:19.091Z,-7.36
2022-12-19T05:07:47.137Z,-7.37
2022-12-19T05:10:14.717Z,-7.50
2022-12-19T05:12:42.039Z,-7.16
2022-12-19T05:15:10.091Z,-7.20
2022-12-19T05:17:37.844Z,-7.04
2022-12-19T05:20:05.930Z,-6.89
2022-12-19T05:22:33.265Z,-6.91
2022-12-19T05:25:00.683Z,-7.32
2022-12-19T05:27:28.083Z,-7.80
2022-12-19T05:29:55.366Z,-8.46
2022-12-19T05:32:23.288Z,-8.54
2022-12-19T05:34:51.523Z,-8.26
2022-12-19T05:37:20.698Z,-8.24
2022-12-19T05:39:48.772Z,-8.36
2022-12-19T05:42:16.916Z,-8.27
2022-12-19T05:44:44.670Z,-8.20
2022-12-19T05:47:13.296Z,-8.34
2022-12-19T05:49:40.713Z,-8.28
2022-12-19T05:52:10.792Z,-8.06
2022-12-19T05:54:38.311Z,-8.29
2022-12-19T05:57:05.609Z,-8.21
2022-12-19T05:59:32.937Z,-8.22
2022-12-19T06:02:00.416Z,-8.30
2022-12-19T06:04:29.728Z,-8.02
2022-12-19T06:06:57.178Z,-7.28
2022-12-19T06:09:24.607Z,-7.36
2022-12-19T06:11:52.153Z,-7.31
2022-12-19T06:14:19.458Z,-7.07
2022-12-19T06:16:46.927Z,-7.12
2022-12-19T06:19:14.476Z,-7.04
2022-12-19T06:21:47.919Z,-6.90
2022-12-19T06:24:19.663Z,-6.82
2022-12-19T06:26:47.134Z,-6.84
2022-12-19T06:29:15.475Z,-6.88
2022-12-19T06:31:42.771Z,-6.93
2022-12-19T06:34:15.342Z,-6.73
2022-12-19T06:36:52.495Z,-6.88
2022-12-19T06:39:22.035Z,-6.51
2022-12-19T06:42:08.188Z,-6.59
2022-12-19T06:44:36.182Z,-6.52
2022-12-19T06:47:03.637Z,-6.33
2022-12-19T06:49:31.067Z,-6.38
2022-12-19T06:51:58.525Z,-6.46
2022-12-19T06:54:25.843Z,-6.54
2022-12-19T06:56:53.270Z,-6.37
2022-12-19T06:59:20.579Z,-6.05
2022-12-19T07:02:06.588Z,-6.11
2022-12-19T07:04:58.184Z,-5.97
2022-12-19T07:07:25.480Z,-5.89
2022-12-19T07:09:52.825Z,-5.77
2022-12-19T07:12:20.230Z,-5.67
2022-12-19T07:14:52.971Z,-5.75
2022-12-19T07:17:23.614Z,-5.33
2022-12-19T07:19:54.348Z,-5.17
2022-12-19T07:22:23.929Z,-4.99
2022-12-19T07:24:51.457Z,-5.04
2022-12-19T07:27:18.837Z,-5.05
2022-12-19T07:29:46.176Z,-4.88
2022-12-19T07:32:13.465Z,-5.11
2022-12-19T07:34:40.998Z,-5.35
2022-12-19T07:37:08.384Z,-4.97
2022-12-19T07:39:35.819Z,-4.80
2022-12-19T07:42:03.450Z,-4.73
2022-12-19T07:44:37.418Z,-4.84
2022-12-19T07:47:05.092Z,-4.59
2022-12-19T07:49:35.874Z,-4.61
2022-12-19T07:52:03.592Z,-4.34
2022-12-19T07:54:31.080Z,-4.20
2022-12-19T07:56:58.392Z,-4.38
2022-12-19T07:59:30.406Z,-4.44
2022-12-19T08:01:59.952Z,-4.17
2022-12-19T08:04:27.429Z,-4.32
2022-12-19T08:06:54.815Z,-3.60
2022-12-19T08:09:24.761Z,-3.95
2022-12-19T08:11:51.920Z,-3.61
2022-12-19T08:14:19.347Z,-3.41
2022-12-19T08:17:18.760Z,-3.66
2022-12-19T08:19:33.997Z,-3.32
2022-12-19T08:22:01.402Z,-3.32
2022-12-19T08:24:28.747Z,-3.32
2022-12-19T08:26:56.042Z,-3.26
2022-12-19T08:29:23.611Z,-3.44
2022-12-19T08:31:51.121Z,-3.38
2022-12-19T08:34:18.486Z,-3.34
2022-12-19T08:36:48.171Z,-3.02
2022-12-19T08:39:15.718Z,-2.89
2022-12-19T08:41:43.117Z,-2.68
2022-12-19T08:44:11.789Z,-2.70
2022-12-19T08:46:41.593Z,-2.54
2022-12-19T08:49:10.939Z,-2.60
2022-12-19T08:51:38.413Z,-2.71
2022-12-19T08:54:07.897Z,-2.27
2022-12-19T08:56:41.414Z,-2.43
2022-12-19T08:59:20.473Z,-2.13
2022-12-19T09:01:58.993Z,-2.12
2022-12-19T09:05:57.404Z,-2.17
2022-12-19T09:07:15.768Z,-1.86
2022-12-19T09:09:46.052Z,-1.66
2022-12-19T09:12:14.908Z,-1.97
2022-12-19T09:14:42.292Z,-1.70
2022-12-19T09:17:09.723Z,-1.64
2022-12-19T09:19:37.289Z,-1.54
2022-12-19T09:22:05.115Z,-1.45
2022-12-19T09:24:32.468Z,-1.07
2022-12-19T09:26:59.799Z,-1.12
2022-12-19T09:29:32.218Z,-1.21
2022-12-19T09:32:02.630Z,-1.35
2022-12-19T09:34:37.669Z,-1.74
2022-12-19T09:37:07.830Z,-2.00
2022-12-19T09:39:36.356Z,-1.87
2022-12-19T09:42:25.334Z,-1.81
2022-12-19T09:45:04.227Z,-2.01
2022-12-19T09:47:34.301Z,-1.91
2022-12-19T09:50:02.733Z,-1.67
2022-12-19T09:52:38.737Z,-1.25
2022-12-19T09:55:12.038Z,-1.03
2022-12-19T09:57:53.096Z,-0.83
2022-12-19T10:00:22.593Z,-0.92
2022-12-19T10:03:01.577Z,-1.19
2022-12-19T10:05:52.319Z,-1.15
2022-12-19T10:08:18.950Z,-1.42
2022-12-19T10:12:37.903Z,-1.78
2022-12-19T10:14:31.265Z,-1.69
2022-12-19T10:17:25.519Z,-1.66
2022-12-19T10:20:11.896Z,-1.80
2022-12-19T10:23:01.549Z,-1.76
2022-12-19T10:25:39.882Z,-1.83
2022-12-19T10:28:34.707Z,-1.87
2022-12-19T10:31:21.634Z,-1.93
2022-12-19T10:34:22.389Z,-1.76
2022-12-19T10:37:27.162Z,-1.66
2022-12-19T10:40:10.376Z,-1.56
2022-12-19T10:43:01.659Z,-1.30
2022-12-19T10:45:44.398Z,-2.01
2022-12-19T10:48:22.447Z,-1.64
2022-12-19T10:50:55.453Z,-1.57
2022-12-19T10:53:28.901Z,-1.59
2022-12-19T10:56:02.730Z,-1.60
2022-12-19T10:58:41.774Z,-1.64
2022-12-19T11:01:15.842Z,-1.50
2022-12-19T11:03:46.867Z,-1.57
2022-12-19T11:07:04.665Z,-1.49
2022-12-19T11:09:36.056Z,-1.47
2022-12-19T11:13:20.388Z,-1.52
2022-12-19T11:19:36.356Z,-1.52
2022-12-19T11:21:09.907Z,-1.30
2022-12-19T11:27:50.945Z,-1.21
2022-12-19T11:30:47.998Z,-1.22
2022-12-19T11:30:48.667Z,-1.28
2022-12-19T11:32:41.812Z,-0.85
2022-12-19T11:35:24.779Z,-0.69
2022-12-19T11:38:01.307Z,-0.79
2022-12-19T11:40:49.573Z,-0.80
2022-12-19T11:46:24.774Z,-0.37
2022-12-19T11:49:12.988Z,-0.26
2022-12-19T11:51:52.471Z,-0.24
2022-12-19T11:54:32.433Z,-0.18
2022-12-19T11:56:59.796Z,0.10
2022-12-19T11:59:38.307Z,0.11
2022-12-19T12:02:27.413Z,0.20
2022-12-19T12:05:19.528Z,0.08
2022-12-19T12:08:43.023Z,0.26
2022-12-19T12:16:00.730Z,0.39
2022-12-19T12:24:17.678Z,0.44
2022-12-19T12:31:05.234Z,0.61
2022-12-19T12:31:23.146Z,0.89
2022-12-19T12:31:26.891Z,0.46
2022-12-19T12:32:02.268Z,1.07
2022-12-19T12:32:04.829Z,0.87
2022-12-19T12:35:56.479Z,1.37
2022-12-19T12:38:02.495Z,1.14
2022-12-19T12:39:33.552Z,1.30
2022-12-19T12:42:35.838Z,1.16
2022-12-19T12:45:18.396Z,0.94
2022-12-19T12:47:50.087Z,0.83
2022-12-19T12:50:19.738Z,0.97
2022-12-19T12:52:50.918Z,0.90
2022-12-19T12:55:20.951Z,1.07
2022-12-19T12:57:48.336Z,1.13
2022-12-19T13:00:24.583Z,1.32
2022-12-19T13:03:11.442Z,1.14
2022-12-19T13:05:43.812Z,1.10
2022-12-19T13:08:38.715Z,0.94
2022-12-19T13:12:03.869Z,0.79
2022-12-19T13:14:34.227Z,1.18
2022-12-19T13:17:06.469Z,0.99
2022-12-19T13:19:55.184Z,1.09
2022-12-19T13:22:43.935Z,0.88
2022-12-19T13:25:34.263Z,0.95
2022-12-19T13:28:01.505Z,0.89
2022-12-19T13:30:30.785Z,0.92
2022-12-19T13:33:08.413Z,0.93
2022-12-19T13:36:57.713Z,0.73
2022-12-19T13:40:01.314Z,0.95
2022-12-19T13:41:47.201Z,0.62
2022-12-19T13:44:18.252Z,0.55
2022-12-19T13:46:46.935Z,0.36
2022-12-19T13:49:33.322Z,0.63
2022-12-19T13:52:03.096Z,0.53
2022-12-19T13:54:36.433Z,0.47
2022-12-19T13:57:09.320Z,0.54
2022-12-19T13:59:40.367Z,0.51
2022-12-19T14:02:45.378Z,0.28
2022-12-19T14:06:17.157Z,0.41
2022-12-19T14:08:27.535Z,0.34
2022-12-19T14:11:38.456Z,0.36
2022-12-19T14:14:20.404Z,0.22
2022-12-19T14:16:51.848Z,0.07
2022-12-19T14:19:30.987Z,0.16
2022-12-19T14:22:20.636Z,-0.02
2022-12-19T14:26:52.234Z,-0.05
2022-12-19T14:28:25.007Z,-0.23
2022-12-19T14:31:00.987Z,-0.19
2022-12-19T14:33:43.419Z,-0.31
2022-12-19T14:54:23.812Z,-0.72
2022-12-19T14:56:16.462Z,-0.91
2022-12-19T14:58:55.565Z,-1.09
2022-12-19T15:01:09.042Z,-1.00
2022-12-19T15:04:48.338Z,-1.16
2022-12-19T15:07:08.077Z,-1.28
2022-12-19T15:11:09.049Z,-1.45
2022-12-19T15:14:38.039Z,-1.38
2022-12-19T15:16:01.147Z,-1.72
2022-12-19T15:18:39.301Z,-1.61
2022-12-19T15:21:12.828Z,-1.84
2022-12-19T15:23:40.729Z,-1.76
2022-12-19T15:26:14.396Z,-2.06
2022-12-19T15:28:53.071Z,-2.17
2022-12-19T15:31:29.936Z,-2.01
2022-12-19T15:36:45.336Z,-2.40
2022-12-19T15:39:18.038Z,-2.29
2022-12-19T15:41:47.940Z,-2.40
2022-12-19T15:44:38.304Z,-2.45
2022-12-19T15:47:11.165Z,-2.28
2022-12-19T15:49:38.666Z,-2.05
2022-12-19T15:52:15.518Z,-2.19
2022-12-19T15:54:51.001Z,-2.05
2022-12-19T15:57:29.318Z,-2.01
2022-12-19T16:00:00.580Z,-2.34
2022-12-19T16:02:56.457Z,-1.99
2022-12-19T16:05:18.450Z,-1.79
2022-12-19T16:07:46.588Z,-1.89
2022-12-19T16:10:15.151Z,-2.10
2022-12-19T16:12:45.515Z,-2.00
2022-12-19T16:15:17.934Z,-1.75
2022-12-19T16:17:45.457Z,-1.78
2022-12-19T16:20:23.988Z,-1.59
2022-12-19T16:22:51.595Z,-1.69
2022-12-19T16:25:20.190Z,-1.81
2022-12-19T16:27:59.841Z,-1.87
2022-12-19T16:30:33.087Z,-1.52
2022-12-19T16:33:00.743Z,-1.56
2022-12-19T16:36:02.334Z,-1.54
2022-12-19T16:38:18.342Z,-1.49
2022-12-19T16:40:46.365Z,-1.59
2022-12-19T16:43:22.685Z,-1.54
2022-12-19T16:45:50.157Z,-1.44
2022-12-19T16:48:23.337Z,-1.45
2022-12-19T16:50:51.065Z,-1.49
2022-12-19T16:53:18.830Z,-1.53
2022-12-19T16:55:48.592Z,-1.85
2022-12-19T16:58:20.098Z,-1.69
2022-12-19T17:00:48.482Z,-1.66
2022-12-19T17:03:41.039Z,-1.62
2022-12-19T17:06:26.785Z,-1.57
2022-12-19T17:08:54.205Z,-1.51
2022-12-19T17:11:24.960Z,-1.57
2022-12-19T17:14:18.173Z,-1.71
2022-12-19T17:16:45.692Z,-1.52
2022-12-19T17:19:23.074Z,-1.37
2022-12-19T17:21:51.002Z,-1.38
2022-12-19T17:24:19.393Z,-1.40
2022-12-19T17:26:47.237Z,-1.55
2022-12-19T17:29:15.095Z,-1.53
2022-12-19T17:31:42.801Z,-1.54
2022-12-19T17:34:20.108Z,-1.57
2022-12-19T17:36:47.758Z,-1.69
2022-12-19T17:39:20.317Z,-1.61
2022-12-19T17:41:48.772Z,-1.75
2022-12-19T17:44:16.696Z,-1.90
2022-12-19T17:46:45.069Z,-1.81
2022-12-19T17:49:32.872Z,-2.06
2022-12-19T17:52:00.474Z,-1.93
2022-12-19T17:54:27.976Z,-2.25
2022-12-19T17:56:55.759Z,-2.29
2022-12-19T17:59:23.108Z,-1.97
2022-12-19T18:01:50.778Z,-2.03
2022-12-19T18:04:21.194Z,-2.24
2022-12-19T18:06:49.481Z,-2.43
2022-12-19T18:09:21.782Z,-2.46
2022-12-19T18:11:52.663Z,-2.54
2022-12-19T18:14:20.163Z,-2.68
2022-12-19T18:16:50.287Z,-2.72
2022-12-19T18:19:19.789Z,-2.75
2022-12-19T18:21:47.564Z,-2.52
2022-12-19T18:24:16.529Z,-2.37
2022-12-19T18:26:45.039Z,-2.46
2022-12-19T18:29:13.046Z,-2.62
2022-12-19T18:31:46.435Z,-2.52
2022-12-19T18:34:23.456Z,-2.62
2022-12-19T18:36:52.266Z,-2.62
2022-12-19T18:39:23.111Z,-2.68
2022-12-19T18:41:52.663Z,-2.67
2022-12-19T18:44:20.390Z,-2.54
2022-12-19T18:46:50.187Z,-2.40
2022-12-19T18:49:18.504Z,-2.52
2022-12-19T18:51:46.034Z,-2.36
2022-12-19T18:54:21.985Z,-2.41
2022-12-19T18:56:49.791Z,-2.46
2022-12-19T18:59:17.089Z,-2.45
2022-12-19T19:01:47.288Z,-2.31
2022-12-19T19:04:17.902Z,-2.29
2022-12-19T19:06:50.957Z,-2.14
2022-12-19T19:09:21.052Z,-2.09
2022-12-19T19:11:48.348Z,-2.17
2022-12-19T19:14:15.766Z,-2.28
2022-12-19T19:16:44.855Z,-2.42
2022-12-19T19:19:17.543Z,-2.24
2022-12-19T19:21:45.112Z,-2.21
2022-12-19T19:24:15.871Z,-2.19
2022-12-19T19:26:43.457Z,-2.21
2022-12-19T19:29:13.529Z,-2.31
2022-12-19T19:31:44.623Z,-2.40
2022-12-19T19:34:34.703Z,-2.47
2022-12-19T19:37:05.996Z,-2.43
2022-12-19T19:39:34.516Z,-2.38
2022-12-19T19:42:02.277Z,-2.48
2022-12-19T19:44:30.126Z,-2.55
2022-12-19T19:46:57.648Z,-2.58
2022-12-19T19:49:25.132Z,-2.55
2022-12-19T19:51:57.019Z,-2.71
2022-12-19T19:54:29.717Z,-2.78
2022-12-19T19:56:57.093Z,-2.70
2022-12-19T19:59:24.537Z,-2.57
2022-12-19T20:01:54.431Z,-2.47
2022-12-19T20:04:22.228Z,-2.55
2022-12-19T20:06:49.569Z,-2.65
2022-12-19T20:09:17.328Z,-2.44
2022-12-19T20:11:45.081Z,-2.49
2022-12-19T20:14:12.722Z,-2.68
2022-12-19T20:16:40.177Z,-2.65
2022-12-19T20:19:07.661Z,-2.61
2022-12-19T20:21:35.066Z,-2.43
2022-12-19T20:24:02.614Z,-2.44
2022-12-19T20:26:30.039Z,-2.37
2022-12-19T20:28:57.390Z,-2.53
2022-12-19T20:31:24.877Z,-2.46
2022-12-19T20:33:54.685Z,-2.57
2022-12-19T20:36:22.944Z,-2.63
2022-12-19T20:38:52.199Z,-2.58
2022-12-19T20:41:19.766Z,-2.55
2022-12-19T20:43:48.312Z,-2.33
2022-12-19T20:46:18.103Z,-2.55
2022-12-19T20:48:46.432Z,-2.50
2022-12-19T20:51:15.795Z,-2.56
2022-12-19T20:53:43.987Z,-2.57
2022-12-19T20:56:17.383Z,-2.63
2022-12-19T20:58:46.171Z,-2.37
2022-12-19T21:01:22.433Z,-2.42
2022-12-19T21:03:50.606Z,-2.30
2022-12-19T21:06:20.544Z,-2.40
2022-12-19T21:08:48.759Z,-2.41
2022-12-19T21:11:16.263Z,-2.28
2022-12-19T21:13:44.140Z,-2.39
2022-12-19T21:16:15.068Z,-2.63
2022-12-19T21:18:44.822Z,-2.68
2022-12-19T21:21:20.803Z,-2.71
2022-12-19T21:23:48.920Z,-2.68
2022-12-19T21:26:16.921Z,-2.64
2022-12-19T21:28:44.808Z,-2.69
2022-12-19T21:31:16.655Z,-2.70
2022-12-19T21:33:45.433Z,-2.78
2022-12-19T21:36:20.493Z,-2.78
2022-12-19T21:38:50.605Z,-2.80
2022-12-19T21:41:21.365Z,-2.75
2022-12-19T21:43:52.476Z,-2.79
2022-12-19T21:46:24.065Z,-2.70
2022-12-19T21:48:53.619Z,-2.76
2022-12-19T21:51:25.033Z,-2.73
2022-12-19T21:54:00.403Z,-2.72
2022-12-19T21:56:39.362Z,-2.86
2022-12-19T21:59:15.079Z,-2.87
2022-12-19T22:01:44.133Z,-2.83
2022-12-19T22:04:15.062Z,-2.88
2022-12-19T22:06:42.461Z,-3.03
2022-12-19T22:09:13.976Z,-2.86
2022-12-19T22:11:41.934Z,-2.74
2022-12-19T22:14:12.445Z,-3.10
2022-12-19T22:16:40.382Z,-2.94
2022-12-19T22:19:08.654Z,-2.96
2022-12-19T22:21:36.999Z,-2.99
2022-12-19T22:24:04.861Z,-3.04
2022-12-19T22:26:32.684Z,-2.92
2022-12-19T22:29:00.034Z,-3.04
2022-12-19T22:31:32.861Z,-2.87
2022-12-19T22:34:03.986Z,-2.87
2022-12-19T22:36:32.699Z,-2.91
2022-12-19T22:39:02.496Z,-2.92
2022-12-19T22:41:30.039Z,-2.98
2022-12-19T22:43:57.491Z,-2.97
2022-12-19T22:46:31.073Z,-2.98
2022-12-19T22:49:00.944Z,-3.07
2022-12-19T22:51:29.838Z,-2.99
2022-12-19T22:53:58.726Z,-2.94
2022-12-19T22:56:28.269Z,-2.96
2022-12-19T22:58:59.075Z,-2.99
2022-12-19T23:01:32.430Z,-2.90
2022-12-19T23:04:02.489Z,-2.78
2022-12-19T23:06:32.307Z,-2.68
2022-12-19T23:09:00.271Z,-2.83
2022-12-19T23:11:31.948Z,-2.78
2022-12-19T23:14:01.678Z,-2.79
2022-12-19T23:16:29.621Z,-2.79
2022-12-19T23:18:57.505Z,-2.82
2022-12-19T23:21:26.402Z,-2.74
2022-12-19T23:23:54.903Z,-2.71
2022-12-19T23:26:30.331Z,-2.76
2022-12-19T23:29:00.502Z,-2.81
2022-12-19T23:31:28.755Z,-2.83
2022-12-19T23:33:57.021Z,-2.69
2022-12-19T23:37:00.584Z,-2.77
2022-12-19T23:39:12.104Z,-2.87
2022-12-19T23:41:40.258Z,-2.81
2022-12-19T23:44:08.843Z,-2.88
2022-12-19T23:46:36.477Z,-2.98
2022-12-19T23:49:04.380Z,-2.94
2022-12-19T23:51:31.986Z,-3.03
2022-12-19T23:53:59.430Z,-2.97
2022-12-19T23:56:29.468Z,-2.98
2022-12-19T23:58:57.222Z,-2.99
